createdAt,value
2022-09-12T00:00:46.236Z,19.81
2022-09-12T00:03:13.448Z,19.67
2022-09-12T00:05:47.665Z,19.56
2022-09-12T00:08:15.274Z,19.36
2022-09-12T00:10:44.270Z,19.32
2022-09-12T00:13:11.880Z,19.32
2022-09-12T00:15:43.517Z,19.47
2022-09-12T00:18:16.633Z,19.11
2022-09-12T00:20:45.676Z,18.98
2022-09-12T00:23:13.870Z,18.56
2022-09-12T00:25:46.415Z,18.22
2022-09-12T00:28:15.376Z,18.14
2022-09-12T00:30:43.229Z,18.04
2022-09-12T00:33:11.059Z,18.11
2022-09-12T00:35:53.157Z,18.17
2022-09-12T00:38:21.119Z,18.17
2022-09-12T00:40:48.614Z,17.92
2022-09-12T00:43:35.724Z,17.80
2022-09-12T00:46:07.561Z,18.17
2022-09-12T00:48:42.703Z,18.30
2022-09-12T00:51:10.097Z,18.38
2022-09-12T00:53:38.631Z,18.43
2022-09-12T00:56:06.159Z,18.32
2022-09-12T00:58:40.562Z,17.92
2022-09-12T01:01:07.536Z,17.77
2022-09-12T01:03:35.026Z,17.83
2022-09-12T01:06:09.639Z,17.79
2022-09-12T01:08:37.597Z,17.85
2022-09-12T01:11:05.886Z,17.86
2022-09-12T01:13:35.249Z,17.94
2022-09-12T01:16:06.542Z,17.79
2022-09-12T01:18:55.765Z,17.98
2022-09-12T01:21:48.766Z,18.02
2022-09-12T01:24:33.616Z,18.17
2022-09-12T01:27:27.035Z,18.01
2022-09-12T01:30:26.237Z,18.03
2022-09-12T01:32:55.706Z,18.02
2022-09-12T01:35:52.026Z,18.05
2022-09-12T01:38:36.441Z,17.86
2022-09-12T01:41:12.399Z,18.07
2022-09-12T01:43:45.867Z,18.01
2022-09-12T01:46:17.859Z,18.17
2022-09-12T01:48:47.310Z,18.38
2022-09-12T01:51:29.986Z,18.27
2022-09-12T01:54:07.065Z,18.28
2022-09-12T01:56:39.104Z,18.24
2022-09-12T01:59:15.411Z,18.04
2022-09-12T02:01:55.170Z,18.13
2022-09-12T02:04:33.507Z,18.12
2022-09-12T02:07:24.009Z,18.05
2022-09-12T02:10:07.817Z,18.01
2022-09-12T02:12:41.624Z,17.95
2022-09-12T02:15:10.517Z,17.86
2022-09-12T02:17:41.270Z,17.97
2022-09-12T02:20:25.961Z,17.99
2022-09-12T02:23:08.385Z,18.26
2022-09-12T02:25:40.143Z,18.24
2022-09-12T02:28:29.646Z,18.64
2022-09-12T02:31:14.667Z,18.29
2022-09-12T02:33:50.228Z,17.99
2022-09-12T02:36:24.067Z,17.90
2022-09-12T02:38:51.462Z,18.01
2022-09-12T02:41:20.833Z,18.08
2022-09-12T02:43:50.605Z,17.96
2022-09-12T02:46:33.835Z,18.19
2022-09-12T02:49:00.974Z,18.34
2022-09-12T02:51:28.053Z,18.42
2022-09-12T02:53:55.470Z,18.37
2022-09-12T02:56:27.562Z,18.31
2022-09-12T02:59:01.664Z,18.28
2022-09-12T03:01:46.825Z,18.07
2022-09-12T03:04:28.695Z,17.95
2022-09-12T03:07:15.963Z,17.74
2022-09-12T03:09:49.395Z,17.68
2022-09-12T03:12:40.510Z,17.64
2022-09-12T03:15:21.983Z,17.84
2022-09-12T03:18:27.968Z,17.87
2022-09-12T03:21:02.932Z,17.98
2022-09-12T03:24:04.481Z,17.99
2022-09-12T03:26:54.988Z,17.88
2022-09-12T03:29:24.462Z,17.79
2022-09-12T03:31:57.079Z,17.53
2022-09-12T03:34:26.625Z,17.41
2022-09-12T03:36:57.570Z,17.45
2022-09-12T03:39:26.552Z,17.46
2022-09-12T03:41:54.871Z,17.58
2022-09-12T03:44:22.211Z,17.49
2022-09-12T03:46:49.207Z,17.46
2022-09-12T03:49:16.678Z,17.59
2022-09-12T03:51:43.859Z,17.66
2022-09-12T03:54:11.031Z,17.64
2022-09-12T03:56:37.918Z,17.58
2022-09-12T03:59:06.917Z,17.58
2022-09-12T04:01:33.919Z,17.54
2022-09-12T04:04:00.902Z,17.70
2022-09-12T04:06:27.778Z,17.75
2022-09-12T04:08:55.184Z,17.74
2022-09-12T04:11:23.083Z,17.62
2022-09-12T04:13:50.399Z,17.73
2022-09-12T04:16:18.901Z,17.81
2022-09-12T04:18:46.898Z,18.14
2022-09-12T04:21:17.069Z,18.16
2022-09-12T04:23:44.149Z,18.12
2022-09-12T04:26:11.889Z,18.13
2022-09-12T04:28:38.910Z,17.95
2022-09-12T04:31:09.126Z,18.11
2022-09-12T04:33:36.482Z,18.09
2022-09-12T04:36:12.166Z,18.08
2022-09-12T04:38:39.171Z,18.25
2022-09-12T04:41:17.527Z,18.17
2022-09-12T04:43:48.456Z,18.17
2022-09-12T04:46:19.858Z,18.16
2022-09-12T04:48:47.998Z,17.99
2022-09-12T04:51:18.048Z,18.27
2022-09-12T04:53:49.684Z,18.39
2022-09-12T04:56:16.748Z,18.51
2022-09-12T04:58:43.965Z,18.75
2022-09-12T05:01:13.851Z,18.74
2022-09-12T05:03:43.588Z,19.13
2022-09-12T05:06:13.963Z,19.27
2022-09-12T05:08:41.424Z,19.43
2022-09-12T05:11:12.868Z,19.46
2022-09-12T05:13:40.251Z,19.55
2022-09-12T05:16:10.382Z,19.39
2022-09-12T05:18:37.331Z,19.60
2022-09-12T05:21:07.307Z,19.51
2022-09-12T05:23:34.543Z,19.55
2022-09-12T05:26:02.649Z,19.20
2022-09-12T05:28:35.471Z,18.93
2022-09-12T05:31:12.007Z,19.40
2022-09-12T05:33:41.378Z,19.35
2022-09-12T05:36:15.156Z,20.54
2022-09-12T05:38:42.076Z,21.60
2022-09-12T05:41:24.712Z,22.78
2022-09-12T05:43:56.835Z,23.93
2022-09-12T05:46:29.165Z,24.26
2022-09-12T05:48:58.458Z,24.69
2022-09-12T05:51:28.243Z,24.10
2022-09-12T05:54:00.361Z,22.83
2022-09-12T05:56:29.229Z,21.92
2022-09-12T05:58:59.349Z,20.89
2022-09-12T06:01:27.442Z,21.25
2022-09-12T06:03:56.248Z,20.88
2022-09-12T06:06:24.936Z,21.30
2022-09-12T06:08:54.184Z,22.04
2022-09-12T06:11:23.805Z,22.12
2022-09-12T06:13:51.282Z,22.45
2022-09-12T06:16:21.095Z,22.98
2022-09-12T06:18:49.822Z,23.28
2022-09-12T06:21:16.856Z,23.65
2022-09-12T06:23:46.313Z,23.93
2022-09-12T06:26:14.007Z,24.78
2022-09-12T06:28:42.516Z,23.87
2022-09-12T06:31:12.429Z,24.11
2022-09-12T06:33:41.869Z,23.20
2022-09-12T06:36:12.728Z,23.05
2022-09-12T06:38:40.354Z,22.78
2022-09-12T06:41:11.514Z,23.01
2022-09-12T06:43:40.074Z,24.41
2022-09-12T06:46:07.733Z,23.97
2022-09-12T06:48:39.623Z,25.41
2022-09-12T06:51:13.976Z,26.97
2022-09-12T06:53:41.682Z,26.13
2022-09-12T06:56:22.827Z,25.50
2022-09-12T06:58:51.433Z,26.16
2022-09-12T07:01:31.197Z,25.53
2022-09-12T07:04:00.516Z,25.73
2022-09-12T07:06:32.164Z,27.21
2022-09-12T07:09:00.262Z,26.11
2022-09-12T07:11:31.919Z,26.04
2022-09-12T07:14:00.978Z,25.34
2022-09-12T07:16:28.624Z,25.89
2022-09-12T07:18:58.655Z,25.19
2022-09-12T07:21:26.032Z,24.95
2022-09-12T07:23:55.342Z,25.04
2022-09-12T07:26:22.427Z,25.08
2022-09-12T07:28:54.634Z,26.62
2022-09-12T07:31:23.946Z,27.24
2022-09-12T07:33:54.650Z,29.19
2022-09-12T07:36:25.411Z,29.31
2022-09-12T07:38:58.603Z,28.11
2022-09-12T07:41:31.246Z,27.51
2022-09-12T07:44:00.155Z,29.13
2022-09-12T07:46:29.679Z,29.84
2022-09-12T07:48:58.322Z,28.73
2022-09-12T07:51:26.926Z,28.59
2022-09-12T07:53:54.407Z,28.72
2022-09-12T07:56:29.379Z,30.01
2022-09-12T07:58:57.636Z,29.15
2022-09-12T08:01:24.929Z,27.97
2022-09-12T08:03:57.279Z,28.61
2022-09-12T08:06:25.889Z,28.47
2022-09-12T08:08:55.414Z,28.83
2022-09-12T08:11:23.401Z,27.62
2022-09-12T08:13:55.439Z,29.27
2022-09-12T08:16:25.493Z,28.35
2022-09-12T08:18:52.499Z,28.92
2022-09-12T08:21:24.813Z,29.11
2022-09-12T08:23:54.301Z,30.69
2022-09-12T08:26:21.495Z,30.91
2022-09-12T08:28:49.234Z,30.96
2022-09-12T08:31:18.466Z,30.19
2022-09-12T08:33:45.653Z,30.77
2022-09-12T08:36:17.382Z,30.16
2022-09-12T08:38:46.511Z,30.45
2022-09-12T08:41:28.057Z,30.57
2022-09-12T08:44:17.381Z,30.85
2022-09-12T08:47:10.287Z,28.99
2022-09-12T08:49:56.655Z,27.33
2022-09-12T08:52:39.087Z,27.36
2022-09-12T08:55:13.538Z,27.59
2022-09-12T08:57:40.504Z,25.88
2022-09-12T09:00:12.880Z,25.76
2022-09-12T09:03:00.278Z,25.55
2022-09-12T09:05:52.783Z,26.99
2022-09-12T09:08:59.088Z,28.90
2022-09-12T09:11:28.900Z,30.03
2022-09-12T09:14:35.274Z,31.91
2022-09-12T09:17:03.393Z,31.82
2022-09-12T09:19:40.790Z,33.17
2022-09-12T09:22:17.873Z,33.87
2022-09-12T09:24:50.774Z,32.78
2022-09-12T09:27:41.035Z,33.78
2022-09-12T09:30:15.848Z,35.18
2022-09-12T09:32:46.189Z,35.70
2022-09-12T09:35:15.925Z,34.53
2022-09-12T09:37:54.547Z,32.95
2022-09-12T09:40:30.328Z,32.56
2022-09-12T09:43:02.358Z,30.93
2022-09-12T09:45:29.912Z,30.34
2022-09-12T09:48:13.836Z,29.46
2022-09-12T09:50:48.391Z,29.03
2022-09-12T09:53:46.286Z,30.66
2022-09-12T09:56:35.779Z,32.38
2022-09-12T09:59:33.826Z,32.38
2022-09-12T10:02:13.247Z,32.97
2022-09-12T10:04:52.858Z,33.50
2022-09-12T10:07:21.929Z,34.38
2022-09-12T10:10:14.458Z,32.75
2022-09-12T10:12:41.507Z,31.70
2022-09-12T10:15:38.547Z,31.73
2022-09-12T10:18:05.699Z,30.37
2022-09-12T10:20:39.694Z,29.65
2022-09-12T10:23:25.340Z,30.00
2022-09-12T10:26:01.731Z,31.41
2022-09-12T10:28:40.093Z,32.92
2022-09-12T10:31:10.567Z,31.37
2022-09-12T10:33:53.908Z,31.47
2022-09-12T10:36:22.303Z,33.39
2022-09-12T10:38:55.115Z,31.90
2022-09-12T10:41:22.184Z,28.99
2022-09-12T10:43:49.983Z,28.77
2022-09-12T10:46:19.802Z,28.83
2022-09-12T10:48:51.670Z,28.58
2022-09-12T10:51:24.623Z,29.73
2022-09-12T10:53:57.684Z,29.63
2022-09-12T10:56:29.100Z,28.94
2022-09-12T10:59:20.135Z,28.44
2022-09-12T11:01:49.706Z,29.85
2022-09-12T11:04:54.169Z,29.18
2022-09-12T11:07:36.070Z,29.20
2022-09-12T11:10:35.729Z,29.57
2022-09-12T11:13:18.556Z,32.01
2022-09-12T11:16:23.083Z,32.69
2022-09-12T11:18:56.026Z,30.61
2022-09-12T11:21:58.274Z,29.41
2022-09-12T11:24:47.331Z,28.21
2022-09-12T11:27:43.381Z,27.74
2022-09-12T11:30:16.419Z,27.97
2022-09-12T11:33:31.047Z,28.13
2022-09-12T11:35:58.086Z,28.07
2022-09-12T11:38:43.278Z,27.36
2022-09-12T11:41:20.517Z,27.35
2022-09-12T11:44:11.810Z,27.82
2022-09-12T11:46:46.728Z,28.63
2022-09-12T11:49:19.679Z,30.69
2022-09-12T11:52:16.047Z,31.87
2022-09-12T11:54:54.149Z,29.94
2022-09-12T11:57:29.433Z,29.83
2022-09-12T12:00:18.636Z,28.57
2022-09-12T12:03:01.305Z,27.10
2022-09-12T12:05:55.612Z,26.95
2022-09-12T12:08:24.151Z,27.90
2022-09-12T12:10:59.937Z,28.03
2022-09-12T12:13:46.871Z,29.03
2022-09-12T12:16:27.027Z,31.46
2022-09-12T12:19:00.458Z,32.80
2022-09-12T12:21:44.526Z,32.15
2022-09-12T12:24:20.843Z,30.86
2022-09-12T12:26:52.436Z,27.72
2022-09-12T12:29:21.851Z,27.61
2022-09-12T12:32:07.876Z,27.61
2022-09-12T12:34:46.781Z,27.72
2022-09-12T12:37:19.572Z,27.35
2022-09-12T12:39:52.802Z,27.37
2022-09-12T12:42:35.182Z,27.29
2022-09-12T12:45:27.371Z,29.54
2022-09-12T12:47:58.285Z,30.64
2022-09-12T12:50:28.227Z,29.69
2022-09-12T12:53:03.304Z,28.60
2022-09-12T12:55:46.930Z,28.04
2022-09-12T12:58:29.118Z,27.81
2022-09-12T13:01:23.256Z,27.54
2022-09-12T13:04:04.381Z,27.70
2022-09-12T13:06:36.245Z,27.96
2022-09-12T13:09:10.122Z,27.35
2022-09-12T13:11:39.335Z,27.98
2022-09-12T13:14:43.630Z,27.74
2022-09-12T13:17:22.866Z,27.79
2022-09-12T13:20:10.655Z,27.69
2022-09-12T13:22:42.595Z,28.06
2022-09-12T13:25:38.928Z,27.93
2022-09-12T13:28:11.579Z,29.01
2022-09-12T13:30:42.606Z,28.52
2022-09-12T13:33:18.935Z,27.81
2022-09-12T13:36:13.662Z,28.06
2022-09-12T13:39:05.662Z,28.12
2022-09-12T13:41:41.494Z,27.29
2022-09-12T13:44:13.379Z,27.10
2022-09-12T13:46:40.935Z,26.79
2022-09-12T13:49:16.111Z,26.92
2022-09-12T13:51:43.739Z,26.99
2022-09-12T13:54:21.411Z,27.06
2022-09-12T13:56:51.364Z,27.58
2022-09-12T13:59:18.252Z,26.93
2022-09-12T14:01:47.424Z,26.87
2022-09-12T14:04:50.731Z,27.12
2022-09-12T14:07:25.898Z,26.56
2022-09-12T14:09:56.001Z,26.72
2022-09-12T14:12:37.577Z,26.64
2022-09-12T14:15:05.660Z,26.49
2022-09-12T14:17:39.486Z,26.44
2022-09-12T14:20:14.547Z,26.26
2022-09-12T14:22:41.737Z,26.52
2022-09-12T14:25:19.492Z,26.44
2022-09-12T14:27:50.946Z,26.50
2022-09-12T14:30:36.693Z,26.74
2022-09-12T14:33:10.550Z,26.53
2022-09-12T14:35:53.232Z,26.26
2022-09-12T14:38:37.553Z,26.37
2022-09-12T14:41:09.214Z,26.61
2022-09-12T14:43:45.825Z,26.31
2022-09-12T14:46:38.916Z,26.89
2022-09-12T14:49:27.800Z,27.07
2022-09-12T14:52:00.927Z,27.37
2022-09-12T14:54:27.734Z,27.84
2022-09-12T14:56:58.822Z,27.85
2022-09-12T14:59:30.365Z,27.57
2022-09-12T15:02:21.454Z,27.43
2022-09-12T15:04:49.444Z,27.26
2022-09-12T15:07:34.715Z,27.22
2022-09-12T15:10:22.121Z,27.10
2022-09-12T15:12:49.981Z,27.08
2022-09-12T15:15:20.146Z,26.97
2022-09-12T15:17:47.713Z,27.00
2022-09-12T15:20:14.827Z,26.56
2022-09-12T15:22:42.517Z,26.67
2022-09-12T15:25:12.574Z,27.07
2022-09-12T15:27:41.025Z,27.46
2022-09-12T15:30:13.366Z,27.71
2022-09-12T15:32:42.414Z,27.59
2022-09-12T15:35:32.701Z,27.02
2022-09-12T15:37:59.697Z,27.06
2022-09-12T15:40:26.736Z,27.09
2022-09-12T15:42:53.599Z,27.19
2022-09-12T15:45:27.903Z,27.09
2022-09-12T15:47:55.687Z,26.87
2022-09-12T15:50:22.882Z,26.80
2022-09-12T15:52:49.975Z,26.76
2022-09-12T15:55:24.322Z,26.71
2022-09-12T15:57:51.242Z,26.72
2022-09-12T16:00:19.353Z,26.74
2022-09-12T16:02:51.378Z,26.59
2022-09-12T16:05:25.204Z,26.74
2022-09-12T16:07:54.063Z,26.57
2022-09-12T16:10:24.350Z,26.48
2022-09-12T16:12:51.574Z,26.19
2022-09-12T16:15:21.978Z,26.21
2022-09-12T16:17:49.209Z,26.09
2022-09-12T16:20:16.595Z,25.76
2022-09-12T16:22:43.848Z,25.64
2022-09-12T16:25:10.783Z,25.36
2022-09-12T16:27:38.114Z,25.31
2022-09-12T16:30:07.724Z,25.29
2022-09-12T16:32:34.661Z,24.96
2022-09-12T16:35:02.044Z,25.06
2022-09-12T16:37:29.039Z,25.17
2022-09-12T16:39:56.058Z,25.15
2022-09-12T16:42:23.130Z,25.27
2022-09-12T16:44:50.289Z,24.98
2022-09-12T16:47:17.435Z,24.85
2022-09-12T16:49:44.418Z,24.54
2022-09-12T16:52:12.801Z,24.46
2022-09-12T16:54:40.858Z,24.39
2022-09-12T16:57:07.852Z,24.27
2022-09-12T16:59:34.748Z,24.64
2022-09-12T17:02:02.443Z,24.54
2022-09-12T17:04:29.586Z,24.41
2022-09-12T17:06:59.482Z,24.41
2022-09-12T17:09:28.288Z,23.92
2022-09-12T17:11:56.646Z,24.05
2022-09-12T17:14:24.133Z,24.08
2022-09-12T17:16:52.128Z,23.43
2022-09-12T17:19:28.178Z,23.48
2022-09-12T17:21:55.868Z,23.31
2022-09-12T17:24:23.262Z,23.42
2022-09-12T17:26:51.752Z,23.23
2022-09-12T17:29:18.756Z,23.01
2022-09-12T17:31:45.904Z,23.37
2022-09-12T17:34:17.857Z,23.05
2022-09-12T17:36:48.320Z,22.85
2022-09-12T17:39:15.489Z,22.62
2022-09-12T17:41:43.317Z,22.50
2022-09-12T17:44:15.117Z,22.39
2022-09-12T17:46:42.586Z,22.18
2022-09-12T17:49:15.026Z,22.09
2022-09-12T17:51:43.798Z,21.84
2022-09-12T17:54:16.212Z,22.29
2022-09-12T17:56:44.461Z,22.76
2022-09-12T17:59:15.492Z,22.77
2022-09-12T18:02:00.887Z,22.66
2022-09-12T18:04:27.836Z,22.66
2022-09-12T18:06:55.143Z,22.86
2022-09-12T18:09:25.011Z,23.07
2022-09-12T18:11:53.146Z,23.19
2022-09-12T18:14:21.044Z,23.13
2022-09-12T18:16:48.651Z,23.10
2022-09-12T18:19:16.033Z,22.62
2022-09-12T18:21:43.043Z,22.45
2022-09-12T18:24:10.737Z,22.13
2022-09-12T18:26:38.150Z,22.06
2022-09-12T18:29:05.349Z,22.23
2022-09-12T18:31:32.263Z,22.24
2022-09-12T18:34:02.752Z,21.71
2022-09-12T18:36:30.500Z,21.97
2022-09-12T18:38:58.987Z,21.87
2022-09-12T18:41:26.937Z,21.90
2022-09-12T18:43:58.961Z,21.96
2022-09-12T18:46:27.567Z,22.09
2022-09-12T18:48:58.820Z,21.76
2022-09-12T18:51:31.705Z,21.77
2022-09-12T18:54:06.227Z,21.68
2022-09-12T18:56:36.063Z,21.49
2022-09-12T18:59:05.356Z,21.67
2022-09-12T19:01:34.572Z,21.59
2022-09-12T19:04:04.814Z,21.48
2022-09-12T19:06:34.955Z,21.48
2022-09-12T19:09:07.326Z,21.42
2022-09-12T19:11:36.920Z,21.13
2022-09-12T19:14:05.008Z,21.29
2022-09-12T19:16:32.343Z,21.38
2022-09-12T19:18:59.725Z,21.26
2022-09-12T19:21:29.025Z,21.18
2022-09-12T19:23:59.227Z,21.11
2022-09-12T19:26:26.563Z,21.23
2022-09-12T19:28:55.132Z,21.25
2022-09-12T19:31:23.406Z,21.28
2022-09-12T19:33:52.516Z,21.30
2022-09-12T19:36:43.731Z,21.36
2022-09-12T19:39:08.872Z,21.44
2022-09-12T19:41:36.456Z,21.55
2022-09-12T19:44:04.505Z,20.88
2022-09-12T19:46:31.956Z,20.80
2022-09-12T19:48:59.064Z,20.74
2022-09-12T19:51:26.115Z,20.88
2022-09-12T19:53:53.549Z,20.94
2022-09-12T19:56:20.804Z,20.87
2022-09-12T19:58:52.292Z,20.88
2022-09-12T20:01:25.134Z,20.76
2022-09-12T20:03:55.213Z,21.06
2022-09-12T20:06:22.658Z,21.40
2022-09-12T20:08:49.958Z,21.50
2022-09-12T20:11:22.177Z,21.41
2022-09-12T20:13:49.439Z,21.29
2022-09-12T20:16:22.730Z,20.92
2022-09-12T20:18:57.976Z,20.61
2022-09-12T20:21:31.608Z,20.27
2022-09-12T20:24:12.067Z,20.05
2022-09-12T20:26:40.082Z,20.09
2022-09-12T20:29:07.838Z,20.25
2022-09-12T20:31:35.289Z,20.47
2022-09-12T20:34:02.908Z,20.22
2022-09-12T20:36:29.848Z,20.24
2022-09-12T20:39:02.839Z,20.26
2022-09-12T20:41:33.181Z,20.55
2022-09-12T20:44:00.425Z,20.61
2022-09-12T20:46:28.819Z,20.58
2022-09-12T20:48:55.911Z,20.87
2022-09-12T20:51:23.031Z,20.87
2022-09-12T20:53:54.571Z,20.90
2022-09-12T20:56:22.269Z,20.76
2022-09-12T20:58:49.799Z,20.50
2022-09-12T21:01:17.333Z,20.47
2022-09-12T21:03:45.502Z,20.36
2022-09-12T21:06:14.344Z,20.45
2022-09-12T21:08:41.361Z,20.47
2022-09-12T21:11:08.670Z,20.10
2022-09-12T21:13:36.573Z,20.23
2022-09-12T21:16:14.471Z,20.18
2022-09-12T21:18:42.067Z,20.18
2022-09-12T21:21:11.704Z,20.16
2022-09-12T21:23:39.134Z,19.99
2022-09-12T21:26:06.353Z,19.88
2022-09-12T21:28:33.463Z,19.81
2022-09-12T21:31:00.773Z,19.73
2022-09-12T21:33:28.298Z,19.74
2022-09-12T21:35:55.235Z,19.64
2022-09-12T21:38:22.117Z,19.73
2022-09-12T21:40:49.139Z,19.66
2022-09-12T21:43:16.105Z,19.70
2022-09-12T21:45:43.056Z,19.66
2022-09-12T21:48:10.739Z,19.71
2022-09-12T21:50:37.583Z,19.78
2022-09-12T21:53:04.466Z,19.85
2022-09-12T21:55:31.348Z,19.76
2022-09-12T21:57:58.215Z,19.86
2022-09-12T22:00:25.157Z,19.78
2022-09-12T22:02:52.674Z,19.80
2022-09-12T22:05:21.425Z,19.73
2022-09-12T22:07:48.338Z,19.67
2022-09-12T22:10:15.420Z,19.66
2022-09-12T22:12:46.212Z,19.64
2022-09-12T22:15:38.789Z,19.75
2022-09-12T22:18:00.896Z,19.68
2022-09-12T22:20:27.972Z,19.63
2022-09-12T22:23:13.394Z,19.70
2022-09-12T22:25:40.257Z,19.51
2022-09-12T22:28:07.234Z,19.41
2022-09-12T22:30:34.146Z,19.44
2022-09-12T22:33:01.168Z,19.48
2022-09-12T22:35:28.012Z,19.45
2022-09-12T22:37:54.911Z,19.43
2022-09-12T22:40:21.980Z,19.13
2022-09-12T22:42:52.405Z,19.12
2022-09-12T22:45:20.043Z,19.26
2022-09-12T22:47:47.007Z,19.25
2022-09-12T22:50:14.347Z,19.28
2022-09-12T22:52:41.768Z,19.28
2022-09-12T22:55:09.260Z,19.14
2022-09-12T22:57:36.314Z,19.12
2022-09-12T23:00:08.119Z,19.10
2022-09-12T23:02:35.077Z,18.88
2022-09-12T23:05:02.712Z,18.90
2022-09-12T23:07:29.654Z,18.83
2022-09-12T23:09:56.606Z,18.68
2022-09-12T23:12:23.575Z,18.68
2022-09-12T23:14:50.467Z,18.47
2022-09-12T23:17:17.382Z,18.73
2022-09-12T23:19:44.365Z,18.94
2022-09-12T23:22:11.251Z,18.52
2022-09-12T23:24:38.470Z,18.54
2022-09-12T23:27:06.105Z,18.59
2022-09-12T23:29:35.461Z,18.60
2022-09-12T23:32:04.337Z,18.50
2022-09-12T23:34:31.243Z,18.71
2022-09-12T23:36:58.121Z,18.66
2022-09-12T23:39:25.083Z,18.54
2022-09-12T23:41:52.282Z,18.42
2022-09-12T23:44:19.237Z,18.42
2022-09-12T23:46:46.122Z,18.48
2022-09-12T23:49:13.047Z,18.42
2022-09-12T23:51:39.910Z,18.26
2022-09-12T23:54:06.861Z,18.27
2022-09-12T23:56:33.787Z,18.33
2022-09-12T23:59:00.737Z,18.14
